createdAt,value
2023-01-02T00:00:08.231Z,7.17
2023-01-02T00:02:40.777Z,6.60
2023-01-02T00:05:09.991Z,10.97
2023-01-02T00:07:38.270Z,6.20
2023-01-02T00:10:07.103Z,9.13
2023-01-02T00:12:36.995Z,6.17
2023-01-02T00:15:05.865Z,7.57
2023-01-02T00:17:34.022Z,8.83
2023-01-02T00:20:02.232Z,9.63
2023-01-02T00:22:30.259Z,9.03
2023-01-02T00:24:58.442Z,6.83
2023-01-02T00:27:26.933Z,9.60
2023-01-02T00:29:56.560Z,7.87
2023-01-02T00:32:24.718Z,8.97
2023-01-02T00:35:11.737Z,8.77
2023-01-02T00:37:39.866Z,8.03
2023-01-02T00:40:13.705Z,7.70
2023-01-02T00:42:42.136Z,7.60
2023-01-02T00:45:12.531Z,11.47
2023-01-02T00:47:40.769Z,7.77
2023-01-02T00:50:09.102Z,8.30
2023-01-02T00:52:37.259Z,9.83
2023-01-02T00:55:06.402Z,5.73
2023-01-02T00:57:34.713Z,4.37
2023-01-02T01:00:03.030Z,5.43
2023-01-02T01:02:33.210Z,8.73
2023-01-02T01:05:01.441Z,7.33
2023-01-02T01:07:30.188Z,8.33
2023-01-02T01:09:58.253Z,6.50
2023-01-02T01:12:26.368Z,8.97
2023-01-02T01:14:54.534Z,5.20
2023-01-02T01:17:22.712Z,6.90
2023-01-02T01:19:52.261Z,6.73
2023-01-02T01:22:20.433Z,6.27
2023-01-02T01:24:48.578Z,8.73
2023-01-02T01:27:17.047Z,8.90
2023-01-02T01:29:45.316Z,6.70
2023-01-02T01:32:13.475Z,8.87
2023-01-02T01:34:41.646Z,7.83
2023-01-02T01:37:11.250Z,9.93
2023-01-02T01:39:39.412Z,9.23
2023-01-02T01:42:07.992Z,6.80
2023-01-02T01:44:44.605Z,6.93
2023-01-02T01:47:21.286Z,6.30
2023-01-02T01:49:51.161Z,7.43
2023-01-02T01:52:24.865Z,6.87
2023-01-02T01:54:56.327Z,6.90
2023-01-02T01:57:28.435Z,8.03
2023-01-02T01:59:57.828Z,7.10
2023-01-02T02:02:27.373Z,8.30
2023-01-02T02:04:56.913Z,9.80
2023-01-02T02:07:26.921Z,7.27
2023-01-02T02:09:58.597Z,9.00
2023-01-02T02:12:28.409Z,5.53
2023-01-02T02:14:56.767Z,6.77
2023-01-02T02:17:33.761Z,5.03
2023-01-02T02:20:09.734Z,10.33
2023-01-02T02:23:28.255Z,5.50
2023-01-02T02:26:29.192Z,7.53
2023-01-02T02:29:43.975Z,7.27
2023-01-02T02:32:17.683Z,9.37
2023-01-02T02:34:51.070Z,8.47
2023-01-02T02:37:24.212Z,5.63
2023-01-02T02:39:58.038Z,10.23
2023-01-02T02:42:32.848Z,8.37
2023-01-02T02:45:06.174Z,7.53
2023-01-02T02:47:39.585Z,5.93
2023-01-02T02:50:11.867Z,8.70
2023-01-02T02:52:44.260Z,6.80
2023-01-02T02:55:15.928Z,9.80
2023-01-02T02:57:46.022Z,5.53
2023-01-02T03:00:16.363Z,8.47
2023-01-02T03:02:45.993Z,8.63
2023-01-02T03:05:17.967Z,12.70
2023-01-02T03:07:50.717Z,9.83
2023-01-02T03:10:24.300Z,5.23
2023-01-02T03:13:00.802Z,8.80
2023-01-02T03:15:33.691Z,4.40
2023-01-02T03:18:11.425Z,14.77
2023-01-02T03:20:42.125Z,9.87
2023-01-02T03:23:15.049Z,9.00
2023-01-02T03:25:45.086Z,7.50
2023-01-02T03:28:16.061Z,8.27
2023-01-02T03:30:45.697Z,7.83
2023-01-02T03:33:18.140Z,10.90
2023-01-02T03:35:47.673Z,8.93
2023-01-02T03:38:17.484Z,8.07
2023-01-02T03:40:48.502Z,7.10
2023-01-02T03:43:18.811Z,9.23
2023-01-02T03:45:50.327Z,9.00
2023-01-02T03:48:26.191Z,8.97
2023-01-02T03:50:55.604Z,9.80
2023-01-02T03:53:24.258Z,6.90
2023-01-02T03:55:59.779Z,6.07
2023-01-02T03:58:34.406Z,5.97
2023-01-02T04:01:06.263Z,9.97
2023-01-02T04:03:38.178Z,7.50
2023-01-02T04:06:09.910Z,10.90
2023-01-02T04:08:41.013Z,7.73
2023-01-02T04:11:09.834Z,10.77
2023-01-02T04:13:41.682Z,6.80
2023-01-02T04:16:11.580Z,6.73
2023-01-02T04:18:46.860Z,7.97
2023-01-02T04:21:18.817Z,8.73
2023-01-02T04:23:50.316Z,5.40
2023-01-02T04:26:22.914Z,8.20
2023-01-02T04:28:52.091Z,10.10
2023-01-02T04:31:23.092Z,6.07
2023-01-02T04:33:55.001Z,9.20
2023-01-02T04:36:23.590Z,6.03
2023-01-02T04:38:51.678Z,11.00
2023-01-02T04:41:27.129Z,4.27
2023-01-02T04:43:55.576Z,7.10
2023-01-02T04:46:24.217Z,11.40
2023-01-02T04:48:54.334Z,9.30
2023-01-02T04:51:22.701Z,5.77
2023-01-02T04:53:51.264Z,7.40
2023-01-02T04:56:19.703Z,8.37
2023-01-02T04:58:48.326Z,5.87
2023-01-02T05:01:17.890Z,7.87
2023-01-02T05:03:47.519Z,8.90
2023-01-02T05:06:17.351Z,6.07
2023-01-02T05:08:45.823Z,6.83
2023-01-02T05:11:15.552Z,7.03
2023-01-02T05:13:43.916Z,6.87
2023-01-02T05:16:12.675Z,9.33
2023-01-02T05:18:40.835Z,8.07
2023-01-02T05:21:31.767Z,8.17
2023-01-02T05:24:01.741Z,7.97
2023-01-02T05:26:32.856Z,7.60
2023-01-02T05:29:02.241Z,10.07
2023-01-02T05:31:30.601Z,11.50
2023-01-02T05:33:59.618Z,11.63
2023-01-02T05:36:28.211Z,7.47
2023-01-02T05:38:56.549Z,8.37
2023-01-02T05:41:26.092Z,9.07
2023-01-02T05:43:55.593Z,9.37
2023-01-02T05:46:23.761Z,7.13
2023-01-02T05:48:51.961Z,12.67
2023-01-02T05:51:20.624Z,4.83
2023-01-02T05:53:49.128Z,8.27
2023-01-02T05:56:18.993Z,6.83
2023-01-02T05:58:51.073Z,10.50
2023-01-02T06:01:20.582Z,10.03
2023-01-02T06:03:49.315Z,7.07
2023-01-02T06:06:19.388Z,9.17
2023-01-02T06:08:47.756Z,8.60
2023-01-02T06:11:15.923Z,7.67
2023-01-02T06:13:44.453Z,8.20
2023-01-02T06:16:14.254Z,6.10
2023-01-02T06:18:42.700Z,9.00
2023-01-02T06:21:12.798Z,12.00
2023-01-02T06:23:41.584Z,10.60
2023-01-02T06:26:11.407Z,9.37
2023-01-02T06:28:40.129Z,8.17
2023-01-02T06:31:09.912Z,9.63
2023-01-02T06:33:39.828Z,9.73
2023-01-02T06:36:10.016Z,9.87
2023-01-02T06:38:38.858Z,9.40
2023-01-02T06:41:08.532Z,8.57
2023-01-02T06:43:37.519Z,8.97
2023-01-02T06:46:06.397Z,7.07
2023-01-02T06:48:35.305Z,8.30
2023-01-02T06:51:07.787Z,8.80
2023-01-02T06:53:36.626Z,7.57
2023-01-02T06:56:05.899Z,9.97
2023-01-02T06:58:35.753Z,7.47
2023-01-02T07:01:04.846Z,8.30
2023-01-02T07:03:33.140Z,9.13
2023-01-02T07:06:02.830Z,10.87
2023-01-02T07:08:33.337Z,8.97
2023-01-02T07:11:09.767Z,8.47
2023-01-02T07:13:38.557Z,7.27
2023-01-02T07:16:08.215Z,7.17
2023-01-02T07:18:37.188Z,9.30
2023-01-02T07:21:06.317Z,8.37
2023-01-02T07:23:36.167Z,8.00
2023-01-02T07:26:06.292Z,10.63
2023-01-02T07:28:35.923Z,11.17
2023-01-02T07:31:07.196Z,5.97
2023-01-02T07:33:36.101Z,11.87
2023-01-02T07:36:06.392Z,8.87
2023-01-02T07:38:36.163Z,8.03
2023-01-02T07:41:04.400Z,8.50
2023-01-02T07:43:32.658Z,12.20
2023-01-02T07:46:04.298Z,6.73
2023-01-02T07:48:32.638Z,7.90
2023-01-02T07:51:01.619Z,7.93
2023-01-02T07:53:29.871Z,5.70
2023-01-02T07:56:00.796Z,6.90
2023-01-02T07:58:29.208Z,7.33
2023-01-02T08:01:04.929Z,11.70
2023-01-02T08:03:34.119Z,9.37
2023-01-02T08:06:07.019Z,6.00
2023-01-02T08:08:35.333Z,8.60
2023-01-02T08:11:07.168Z,9.97
2023-01-02T08:13:35.778Z,8.80
2023-01-02T08:16:08.263Z,7.43
2023-01-02T08:18:36.625Z,9.80
2023-01-02T08:21:05.582Z,9.57
2023-01-02T08:23:34.248Z,6.63
2023-01-02T08:26:03.288Z,7.73
2023-01-02T08:28:33.485Z,4.30
2023-01-02T08:31:02.233Z,5.83
2023-01-02T08:33:30.616Z,8.13
2023-01-02T08:35:58.826Z,12.23
2023-01-02T08:38:27.136Z,8.80
2023-01-02T08:40:55.581Z,7.43
2023-01-02T08:43:23.945Z,7.27
2023-01-02T08:45:53.686Z,6.47
2023-01-02T08:48:22.144Z,5.80
2023-01-02T08:50:50.681Z,6.77
2023-01-02T08:53:19.112Z,7.70
2023-01-02T08:55:47.295Z,10.80
2023-01-02T08:58:15.584Z,5.93
2023-01-02T09:00:43.923Z,7.57
2023-01-02T09:03:13.744Z,5.50
2023-01-02T09:05:42.153Z,7.27
2023-01-02T09:08:10.661Z,8.20
2023-01-02T09:10:39.152Z,5.03
2023-01-02T09:13:07.634Z,7.13
2023-01-02T09:15:35.838Z,6.33
2023-01-02T09:18:04.180Z,5.33
2023-01-02T09:20:33.764Z,4.37
2023-01-02T09:23:02.117Z,8.57
2023-01-02T09:25:30.300Z,4.33
2023-01-02T09:27:58.552Z,7.03
2023-01-02T09:30:26.861Z,7.20
2023-01-02T09:32:55.683Z,7.00
2023-01-02T09:35:23.845Z,5.37
2023-01-02T09:37:53.325Z,3.60
2023-01-02T09:40:21.925Z,9.40
2023-01-02T09:42:51.906Z,3.90
2023-01-02T09:45:20.214Z,4.13
2023-01-02T09:47:48.616Z,7.90
2023-01-02T09:50:20.287Z,5.07
2023-01-02T09:52:54.329Z,3.33
2023-01-02T09:55:33.108Z,4.47
2023-01-02T09:58:04.886Z,2.03
2023-01-02T10:00:35.532Z,3.07
2023-01-02T10:03:11.358Z,2.60
2023-01-02T10:06:00.193Z,2.37
2023-01-02T10:08:34.652Z,4.00
2023-01-02T10:11:14.196Z,3.00
2023-01-02T10:14:18.234Z,2.53
2023-01-02T10:16:38.837Z,1.73
2023-01-02T10:19:14.331Z,2.63
2023-01-02T10:21:44.070Z,2.40
2023-01-02T10:24:17.655Z,2.33
2023-01-02T10:26:49.375Z,1.50
2023-01-02T10:29:22.363Z,2.43
2023-01-02T10:31:53.971Z,3.97
2023-01-02T10:34:24.895Z,1.60
2023-01-02T10:36:53.167Z,2.00
2023-01-02T10:39:23.934Z,3.33
2023-01-02T10:41:53.743Z,2.60
2023-01-02T10:44:24.804Z,3.53
2023-01-02T10:46:53.082Z,3.90
2023-01-02T10:49:21.698Z,1.73
2023-01-02T10:51:53.447Z,3.03
2023-01-02T10:54:23.293Z,3.03
2023-01-02T10:56:54.967Z,2.87
2023-01-02T10:59:24.927Z,2.27
2023-01-02T11:01:55.142Z,1.27
2023-01-02T11:04:25.741Z,1.90
2023-01-02T11:06:57.311Z,1.70
2023-01-02T11:09:28.237Z,1.80
2023-01-02T11:11:58.263Z,1.33
2023-01-02T11:14:31.078Z,1.60
2023-01-02T11:17:05.408Z,3.13
2023-01-02T11:19:40.506Z,1.87
2023-01-02T11:22:09.419Z,2.67
2023-01-02T11:25:00.196Z,2.60
2023-01-02T11:27:31.405Z,3.60
2023-01-02T11:30:00.540Z,2.33
2023-01-02T11:32:30.536Z,1.77
2023-01-02T11:35:02.338Z,3.13
2023-01-02T11:37:30.692Z,12.40
2023-01-02T11:40:01.818Z,7.00
2023-01-02T11:42:54.787Z,7.43
2023-01-02T11:45:23.214Z,6.60
2023-01-02T11:47:53.070Z,7.27
2023-01-02T11:50:24.810Z,4.20
2023-01-02T11:52:57.028Z,4.47
2023-01-02T11:55:35.051Z,4.40
2023-01-02T11:58:08.712Z,5.63
2023-01-02T12:00:38.367Z,4.60
2023-01-02T12:03:09.838Z,7.27
2023-01-02T12:05:44.468Z,8.00
2023-01-02T12:08:21.118Z,5.47
2023-01-02T12:10:58.911Z,11.37
2023-01-02T12:13:43.836Z,2.70
2023-01-02T12:16:24.725Z,5.53
2023-01-02T12:19:12.966Z,2.17
2023-01-02T12:21:47.110Z,5.33
2023-01-02T12:24:32.950Z,3.77
2023-01-02T12:27:07.675Z,2.73
2023-01-02T12:30:04.417Z,4.20
2023-01-02T12:32:58.126Z,3.67
2023-01-02T12:35:53.375Z,3.90
2023-01-02T12:38:33.337Z,4.17
2023-01-02T12:41:11.714Z,2.10
2023-01-02T12:44:00.560Z,3.13
2023-01-02T12:46:40.715Z,3.67
2023-01-02T12:49:42.970Z,5.53
2023-01-02T12:52:19.907Z,2.10
2023-01-02T12:54:57.887Z,5.80
2023-01-02T12:57:33.919Z,3.77
2023-01-02T13:00:23.491Z,3.17
2023-01-02T13:03:07.182Z,4.27
2023-01-02T13:05:39.722Z,3.40
2023-01-02T13:08:15.914Z,2.27
2023-01-02T13:10:44.427Z,3.83
2023-01-02T13:13:13.084Z,2.87
2023-01-02T13:15:46.890Z,1.90
2023-01-02T13:18:18.749Z,2.37
2023-01-02T13:20:53.917Z,3.13
2023-01-02T13:23:35.173Z,3.10
2023-01-02T13:26:08.122Z,3.80
2023-01-02T13:28:41.810Z,2.93
2023-01-02T13:34:07.932Z,2.73
2023-01-02T13:36:39.128Z,2.97
2023-01-02T13:39:19.126Z,3.30
2023-01-02T13:42:09.847Z,2.03
2023-01-02T13:44:41.345Z,1.90
2023-01-02T13:47:22.004Z,1.80
2023-01-02T13:49:58.861Z,1.30
2023-01-02T13:52:27.794Z,2.67
2023-01-02T13:55:31.605Z,1.50
2023-01-02T13:58:24.464Z,1.57
2023-01-02T14:00:55.225Z,1.60
2023-01-02T14:03:38.921Z,1.70
2023-01-02T14:06:31.753Z,3.63
2023-01-02T14:09:14.536Z,3.67
2023-01-02T14:11:57.210Z,2.43
2023-01-02T14:14:30.956Z,2.50
2023-01-02T14:17:09.146Z,2.73
2023-01-02T14:19:39.553Z,2.07
2023-01-02T14:22:13.254Z,2.33
2023-01-02T14:24:43.598Z,2.20
2023-01-02T14:27:23.234Z,2.10
2023-01-02T14:29:53.929Z,3.73
2023-01-02T14:32:26.086Z,2.40
2023-01-02T14:34:57.184Z,2.40
2023-01-02T14:37:30.222Z,2.67
2023-01-02T14:40:11.032Z,2.80
2023-01-02T14:42:57.179Z,6.07
2023-01-02T14:45:28.281Z,2.83
2023-01-02T14:48:00.639Z,2.10
2023-01-02T14:50:34.225Z,1.90
2023-01-02T14:53:07.553Z,2.30
2023-01-02T14:55:42.365Z,2.47
2023-01-02T14:58:18.863Z,3.00
2023-01-02T15:00:48.335Z,3.43
2023-01-02T15:03:27.472Z,2.77
2023-01-02T15:06:00.632Z,3.30
2023-01-02T15:08:36.879Z,2.87
2023-01-02T15:11:23.346Z,3.00
2023-01-02T15:14:04.196Z,3.20
2023-01-02T15:16:41.228Z,5.53
2023-01-02T15:19:17.336Z,4.20
2023-01-02T15:21:47.500Z,4.73
2023-01-02T15:24:23.908Z,3.70
2023-01-02T15:26:53.332Z,3.37
2023-01-02T15:29:24.647Z,3.30
2023-01-02T15:31:54.838Z,3.73
2023-01-02T15:34:28.473Z,4.23
2023-01-02T15:36:59.375Z,3.60
2023-01-02T15:39:33.499Z,3.30
2023-01-02T15:42:06.604Z,3.80
2023-01-02T15:44:57.800Z,6.50
2023-01-02T15:47:28.543Z,4.80
2023-01-02T15:49:57.925Z,3.97
2023-01-02T15:52:31.162Z,3.80
2023-01-02T15:55:00.533Z,3.47
2023-01-02T15:57:32.461Z,3.07
2023-01-02T16:00:01.125Z,5.03
2023-01-02T16:02:35.305Z,3.67
2023-01-02T16:05:09.549Z,3.97
2023-01-02T16:07:44.105Z,3.50
2023-01-02T16:10:20.023Z,3.70
2023-01-02T16:12:53.785Z,3.70
2023-01-02T16:15:25.085Z,6.03
2023-01-02T16:17:55.170Z,4.73
2023-01-02T16:20:24.756Z,4.63
2023-01-02T16:22:56.283Z,4.80
2023-01-02T16:25:26.247Z,4.93
2023-01-02T16:27:56.683Z,5.10
2023-01-02T16:30:32.731Z,5.57
2023-01-02T16:33:02.564Z,4.50
2023-01-02T16:35:32.617Z,5.73
2023-01-02T16:38:04.513Z,4.10
2023-01-02T16:41:03.006Z,4.23
2023-01-02T16:43:36.734Z,4.67
2023-01-02T16:46:12.732Z,4.13
2023-01-02T16:48:43.782Z,3.40
2023-01-02T16:51:16.014Z,3.30
2023-01-02T16:53:46.811Z,3.13
2023-01-02T16:56:16.027Z,2.70
2023-01-02T16:58:44.543Z,2.77
2023-01-02T17:01:14.032Z,2.07
2023-01-02T17:03:42.947Z,2.80
2023-01-02T17:06:13.624Z,2.70
2023-01-02T17:08:42.288Z,2.60
2023-01-02T17:11:16.421Z,5.23
2023-01-02T17:13:44.709Z,1.80
2023-01-02T17:16:13.275Z,3.03
2023-01-02T17:18:42.419Z,1.60
2023-01-02T17:21:11.080Z,1.60
2023-01-02T17:23:39.836Z,1.87
2023-01-02T17:26:08.175Z,1.40
2023-01-02T17:28:39.239Z,1.30
2023-01-02T17:31:15.184Z,1.43
2023-01-02T17:33:43.904Z,1.67
2023-01-02T17:36:12.308Z,1.63
2023-01-02T17:38:40.812Z,2.23
2023-01-02T17:41:09.641Z,2.80
2023-01-02T17:43:39.541Z,1.70
2023-01-02T17:47:05.074Z,3.43
2023-01-02T17:49:17.358Z,2.20
2023-01-02T17:51:45.617Z,2.97
2023-01-02T17:54:14.069Z,1.97
2023-01-02T17:56:43.658Z,2.13
2023-01-02T17:59:14.227Z,4.53
2023-01-02T18:01:42.588Z,4.47
2023-01-02T18:04:10.968Z,3.37
2023-01-02T18:06:39.328Z,2.43
2023-01-02T18:09:07.938Z,2.33
2023-01-02T18:11:36.489Z,3.37
2023-01-02T18:14:10.905Z,1.87
2023-01-02T18:16:42.415Z,2.40
2023-01-02T18:19:14.750Z,1.80
2023-01-02T18:21:44.769Z,2.47
2023-01-02T18:24:15.194Z,2.67
2023-01-02T18:26:43.442Z,2.10
2023-01-02T18:29:22.647Z,2.27
2023-01-02T18:31:52.586Z,3.43
2023-01-02T18:37:20.877Z,3.37
2023-01-02T18:39:49.778Z,3.80
2023-01-02T18:42:20.848Z,3.67
2023-01-02T18:44:50.353Z,2.53
2023-01-02T18:47:27.114Z,4.63
2023-01-02T18:49:57.688Z,4.77
2023-01-02T18:52:28.574Z,4.43
2023-01-02T18:55:00.892Z,4.43
2023-01-02T18:57:33.570Z,4.17
2023-01-02T19:00:14.143Z,5.20
2023-01-02T19:02:53.151Z,2.80
2023-01-02T19:05:25.385Z,2.70
2023-01-02T19:07:56.486Z,3.17
2023-01-02T19:10:36.576Z,3.13
2023-01-02T19:13:08.141Z,3.90
2023-01-02T19:15:43.178Z,4.03
2023-01-02T19:18:35.758Z,3.73
2023-01-02T19:21:13.372Z,5.17
2023-01-02T19:23:47.076Z,4.47
2023-01-02T19:26:28.715Z,3.43
2023-01-02T19:28:59.664Z,5.07
2023-01-02T19:31:32.353Z,5.83
2023-01-02T19:34:02.984Z,5.67
2023-01-02T19:36:39.890Z,9.13
2023-01-02T19:39:24.016Z,5.17
2023-01-02T19:42:06.486Z,4.30
2023-01-02T19:44:34.725Z,5.80
2023-01-02T19:47:03.122Z,4.53
2023-01-02T19:49:32.884Z,4.27
2023-01-02T19:52:01.144Z,6.57
2023-01-02T19:54:29.505Z,4.93
2023-01-02T19:57:23.848Z,4.33
2023-01-02T20:03:42.239Z,4.30
2023-01-02T20:06:38.763Z,4.17
2023-01-02T20:09:20.337Z,6.40
2023-01-02T20:12:09.395Z,5.53
2023-01-02T20:14:37.872Z,5.53
2023-01-02T20:17:06.500Z,5.20
2023-01-02T20:22:21.077Z,7.37
2023-01-02T20:25:05.986Z,5.93
2023-01-02T20:33:18.641Z,5.20
2023-01-02T20:35:50.811Z,4.73
2023-01-02T20:38:20.285Z,5.33
2023-01-02T20:41:35.768Z,6.53
2023-01-02T20:44:36.937Z,6.33
2023-01-02T20:47:05.716Z,6.90
2023-01-02T20:49:33.745Z,5.00
2023-01-02T20:52:03.389Z,5.30
2023-01-02T20:54:35.378Z,4.93
2023-01-02T20:57:03.590Z,2.03
2023-01-02T20:59:34.942Z,2.30
2023-01-02T21:02:04.452Z,6.57
2023-01-02T21:04:36.686Z,4.90
2023-01-02T21:07:06.564Z,3.50
2023-01-02T21:09:36.701Z,2.80
2023-01-02T21:12:25.124Z,3.83
2023-01-02T21:14:55.834Z,3.10
2023-01-02T21:17:24.055Z,4.87
2023-01-02T21:19:52.516Z,3.40
2023-01-02T21:22:20.688Z,5.90
2023-01-02T21:24:50.172Z,3.30
2023-01-02T21:27:20.852Z,3.13
2023-01-02T21:29:48.909Z,6.30
2023-01-02T21:32:17.073Z,5.17
2023-01-02T21:34:45.494Z,4.67
2023-01-02T21:37:13.825Z,6.37
2023-01-02T21:39:42.047Z,3.27
2023-01-02T21:42:17.259Z,4.13
2023-01-02T21:44:47.224Z,3.73
2023-01-02T21:47:16.197Z,4.23
2023-01-02T21:49:45.039Z,4.87
2023-01-02T21:52:13.490Z,5.43
2023-01-02T21:54:41.647Z,4.23
2023-01-02T21:57:11.446Z,4.40
2023-01-02T21:59:39.877Z,3.63
2023-01-02T22:02:08.668Z,4.43
2023-01-02T22:04:36.994Z,3.57
2023-01-02T22:09:58.625Z,5.37
2023-01-02T22:12:29.771Z,3.87
2023-01-02T22:14:58.231Z,3.77
2023-01-02T22:17:28.759Z,2.63
2023-01-02T22:19:59.396Z,3.13
2023-01-02T22:22:27.760Z,3.47
2023-01-02T22:24:55.964Z,2.60
2023-01-02T22:27:24.349Z,2.60
2023-01-02T22:32:46.747Z,2.57
2023-01-02T22:35:14.814Z,4.70
2023-01-02T22:37:42.795Z,3.30
2023-01-02T22:40:12.161Z,5.33
2023-01-02T22:43:01.701Z,3.63
2023-01-02T22:45:35.814Z,4.40
2023-01-02T22:48:07.106Z,2.53
2023-01-02T22:50:42.224Z,2.97
2023-01-02T22:53:18.490Z,4.27
2023-01-02T22:55:46.639Z,4.23
2023-01-02T22:58:14.759Z,3.77
2023-01-02T23:00:44.437Z,3.13
2023-01-02T23:03:13.851Z,3.73
2023-01-02T23:05:42.204Z,3.57
2023-01-02T23:08:10.205Z,3.67
2023-01-02T23:10:38.559Z,3.40
2023-01-02T23:13:06.563Z,5.57
2023-01-02T23:15:34.585Z,5.50
2023-01-02T23:18:17.907Z,3.13
2023-01-02T23:20:45.910Z,2.10
2023-01-02T23:23:13.910Z,4.77
2023-01-02T23:25:42.967Z,4.13
2023-01-02T23:28:20.493Z,3.27
2023-01-02T23:30:58.956Z,2.77
2023-01-02T23:33:28.356Z,4.60
2023-01-02T23:35:56.920Z,3.13
2023-01-02T23:38:26.535Z,3.40
2023-01-02T23:40:54.589Z,4.40
2023-01-02T23:43:22.535Z,4.47
2023-01-02T23:45:51.029Z,4.20
2023-01-02T23:48:19.117Z,2.97
2023-01-02T23:50:48.531Z,2.80
2023-01-02T23:53:16.610Z,2.13
2023-01-02T23:55:44.816Z,1.83
2023-01-02T23:58:12.796Z,2.37
